createdAt,value
2023-12-18T00:00:26.851Z,0.90
2023-12-18T00:02:53.736Z,0.80
2023-12-18T00:05:20.809Z,0.90
2023-12-18T00:07:47.710Z,0.80
2023-12-18T00:10:14.504Z,0.80
2023-12-18T00:12:41.397Z,0.70
2023-12-18T00:15:08.865Z,0.70
2023-12-18T00:17:35.948Z,0.70
2023-12-18T00:20:05.316Z,0.60
2023-12-18T00:22:32.689Z,0.60
2023-12-18T00:24:59.928Z,0.70
2023-12-18T00:27:27.495Z,0.60
2023-12-18T00:29:54.575Z,0.60
2023-12-18T00:32:21.733Z,0.60
2023-12-18T00:34:48.830Z,0.60
2023-12-18T00:37:16.070Z,0.50
2023-12-18T00:39:42.963Z,0.60
2023-12-18T00:42:09.858Z,0.60
2023-12-18T00:44:36.729Z,0.60
2023-12-18T00:47:04.108Z,0.60
2023-12-18T00:49:33.789Z,0.50
2023-12-18T00:52:01.152Z,0.50
2023-12-18T00:54:28.221Z,0.60
2023-12-18T00:56:55.321Z,0.60
2023-12-18T00:59:22.230Z,0.60
2023-12-18T01:01:49.171Z,0.70
2023-12-18T01:04:16.171Z,0.60
2023-12-18T01:06:43.342Z,0.60
2023-12-18T01:09:11.040Z,0.50
2023-12-18T01:11:37.891Z,0.50
2023-12-18T01:14:05.097Z,0.60
2023-12-18T01:16:32.069Z,0.40
2023-12-18T01:18:59.135Z,0.40
2023-12-18T01:21:26.194Z,0.30
2023-12-18T01:23:53.066Z,0.20
2023-12-18T01:26:19.901Z,0.10
2023-12-18T01:28:46.732Z,0.20
2023-12-18T01:31:26.282Z,0.30
2023-12-18T01:33:54.980Z,0.20
2023-12-18T01:36:23.021Z,0.10
2023-12-18T01:38:49.935Z,0.20
2023-12-18T01:41:17.874Z,0.10
2023-12-18T01:43:44.717Z,0.10
2023-12-18T01:46:18.679Z,0.10
2023-12-18T01:48:46.035Z,0.00
2023-12-18T01:51:13.255Z,0.00
2023-12-18T01:53:43.616Z,0.10
2023-12-18T01:56:13.321Z,0.10
2023-12-18T01:58:41.114Z,0.10
2023-12-18T02:01:10.132Z,0.00
2023-12-18T02:03:37.658Z,0.00
2023-12-18T02:06:05.814Z,-0.20
2023-12-18T02:08:35.461Z,-0.20
2023-12-18T02:11:02.802Z,-0.20
2023-12-18T02:13:29.667Z,-0.10
2023-12-18T02:15:57.862Z,-0.10
2023-12-18T02:18:24.901Z,0.00
2023-12-18T02:20:51.883Z,-0.10
2023-12-18T02:23:18.920Z,-0.10
2023-12-18T02:25:45.696Z,-0.10
2023-12-18T02:28:13.058Z,-0.10
2023-12-18T02:30:40.121Z,-0.20
2023-12-18T02:33:07.177Z,-0.20
2023-12-18T02:35:34.431Z,-0.10
2023-12-18T02:38:01.370Z,-0.20
2023-12-18T02:40:28.465Z,-0.30
2023-12-18T02:42:55.322Z,-0.30
2023-12-18T02:45:22.311Z,-0.30
2023-12-18T02:47:49.373Z,-0.30
2023-12-18T02:50:17.259Z,-0.40
2023-12-18T02:52:44.179Z,-0.50
2023-12-18T02:55:13.335Z,-0.30
2023-12-18T02:57:40.847Z,-0.30
2023-12-18T03:00:09.692Z,-0.40
2023-12-18T03:02:39.514Z,-0.40
2023-12-18T03:05:06.862Z,-0.50
2023-12-18T03:07:33.771Z,-0.60
2023-12-18T03:10:00.635Z,-0.60
2023-12-18T03:12:27.551Z,-0.50
2023-12-18T03:14:54.626Z,-0.50
2023-12-18T03:17:21.487Z,-0.50
2023-12-18T03:19:48.339Z,-0.50
2023-12-18T03:22:15.213Z,-0.60
2023-12-18T03:24:44.059Z,-0.60
2023-12-18T03:27:11.641Z,-0.50
2023-12-18T03:29:38.632Z,-0.50
2023-12-18T03:32:05.600Z,-0.40
2023-12-18T03:34:32.706Z,-0.60
2023-12-18T03:37:00.718Z,-0.60
2023-12-18T03:39:27.585Z,-0.70
2023-12-18T03:41:54.387Z,-0.60
2023-12-18T03:44:22.013Z,-0.60
2023-12-18T03:46:49.030Z,-0.60
2023-12-18T03:49:16.108Z,-0.60
2023-12-18T03:51:43.117Z,-0.60
2023-12-18T03:54:10.127Z,-0.60
2023-12-18T03:56:36.996Z,-0.60
2023-12-18T03:59:03.800Z,-0.60
2023-12-18T04:01:37.590Z,-0.60
2023-12-18T04:04:04.805Z,-0.60
2023-12-18T04:06:31.829Z,-0.60
2023-12-18T04:08:58.746Z,-0.60
2023-12-18T04:11:25.638Z,-0.50
2023-12-18T04:13:53.317Z,-0.50
2023-12-18T04:16:20.187Z,-0.70
2023-12-18T04:18:47.282Z,-0.60
2023-12-18T04:21:14.351Z,-0.60
2023-12-18T04:23:41.241Z,-0.70
2023-12-18T04:26:09.924Z,-0.70
2023-12-18T04:28:36.977Z,-0.70
2023-12-18T04:31:04.102Z,-0.80
2023-12-18T04:33:31.163Z,-0.80
2023-12-18T04:35:59.112Z,-0.80
2023-12-18T04:38:25.919Z,-0.70
2023-12-18T04:40:52.725Z,-0.70
2023-12-18T04:43:19.543Z,-0.80
2023-12-18T04:45:46.376Z,-0.80
2023-12-18T04:48:13.441Z,-0.80
2023-12-18T04:50:40.330Z,-0.80
2023-12-18T04:53:07.131Z,-0.80
2023-12-18T04:55:33.941Z,-0.80
2023-12-18T04:58:01.193Z,-0.80
2023-12-18T05:00:27.999Z,-0.80
2023-12-18T05:02:54.863Z,-0.90
2023-12-18T05:05:21.735Z,-1.00
2023-12-18T05:07:48.623Z,-1.00
2023-12-18T05:10:15.587Z,-1.00
2023-12-18T05:12:42.599Z,-1.10
2023-12-18T05:15:11.173Z,-1.20
2023-12-18T05:17:39.409Z,-1.30
2023-12-18T05:20:10.106Z,-1.20
2023-12-18T05:22:37.069Z,-1.10
2023-12-18T05:25:04.018Z,-1.10
2023-12-18T05:27:30.854Z,-1.00
2023-12-18T05:29:57.738Z,-1.00
2023-12-18T05:32:24.775Z,-1.10
2023-12-18T05:34:51.877Z,-1.00
2023-12-18T05:37:18.870Z,-0.90
2023-12-18T05:39:45.829Z,-1.10
2023-12-18T05:42:12.848Z,-1.10
2023-12-18T05:44:39.684Z,-1.00
2023-12-18T05:47:06.777Z,-0.90
2023-12-18T05:49:33.852Z,-1.10
2023-12-18T05:52:00.766Z,-1.10
2023-12-18T05:54:27.717Z,-1.20
2023-12-18T05:56:54.607Z,-1.30
2023-12-18T05:59:21.729Z,-1.30
2023-12-18T06:01:48.779Z,-1.30
2023-12-18T06:04:15.732Z,-1.30
2023-12-18T06:06:42.611Z,-1.40
2023-12-18T06:09:09.547Z,-1.40
2023-12-18T06:11:36.386Z,-1.40
2023-12-18T06:14:03.370Z,-1.30
2023-12-18T06:16:30.398Z,-1.40
2023-12-18T06:18:58.502Z,-1.40
2023-12-18T06:21:25.398Z,-1.40
2023-12-18T06:23:52.197Z,-1.50
2023-12-18T06:26:19.027Z,-1.60
2023-12-18T06:28:45.872Z,-1.60
2023-12-18T06:31:12.926Z,-1.60
2023-12-18T06:33:39.991Z,-1.50
2023-12-18T06:36:07.069Z,-1.40
2023-12-18T06:38:33.931Z,-1.50
2023-12-18T06:41:00.785Z,-1.50
2023-12-18T06:43:27.634Z,-1.60
2023-12-18T06:45:54.844Z,-1.50
2023-12-18T06:48:21.762Z,-1.60
2023-12-18T06:50:48.614Z,-1.70
2023-12-18T06:53:15.427Z,-1.70
2023-12-18T06:55:42.264Z,-1.70
2023-12-18T06:58:09.117Z,-1.60
2023-12-18T07:00:41.001Z,-1.60
2023-12-18T07:03:08.980Z,-1.80
2023-12-18T07:05:36.031Z,-1.80
2023-12-18T07:08:03.302Z,-1.90
2023-12-18T07:10:30.093Z,-1.80
2023-12-18T07:12:57.020Z,-1.90
2023-12-18T07:15:25.980Z,-1.90
2023-12-18T07:17:54.039Z,-1.80
2023-12-18T07:20:21.040Z,-1.80
2023-12-18T07:22:48.107Z,-1.70
2023-12-18T07:25:15.187Z,-1.70
2023-12-18T07:27:42.262Z,-1.60
2023-12-18T07:30:09.974Z,-1.70
2023-12-18T07:32:36.914Z,-1.70
2023-12-18T07:35:04.280Z,-1.80
2023-12-18T07:37:31.937Z,-1.80
2023-12-18T07:39:59.716Z,-1.80
2023-12-18T07:42:27.312Z,-1.70
2023-12-18T07:44:54.745Z,-1.80
2023-12-18T07:47:21.717Z,-1.70
2023-12-18T07:49:50.991Z,-1.70
2023-12-18T07:52:18.855Z,-1.60
2023-12-18T07:54:46.147Z,-1.50
2023-12-18T07:57:13.309Z,-1.60
2023-12-18T07:59:41.474Z,-1.60
2023-12-18T08:02:09.233Z,-1.60
2023-12-18T08:04:39.624Z,-1.60
2023-12-18T08:07:06.809Z,-1.50
2023-12-18T08:09:34.076Z,-1.50
2023-12-18T08:12:01.296Z,-1.50
2023-12-18T08:14:28.420Z,-1.50
2023-12-18T08:16:55.772Z,-1.50
2023-12-18T08:19:23.130Z,-1.40
2023-12-18T08:21:50.393Z,-1.40
2023-12-18T08:24:17.285Z,-1.50
2023-12-18T08:26:48.600Z,-1.40
2023-12-18T08:29:15.435Z,-1.40
2023-12-18T08:31:43.917Z,-1.40
2023-12-18T08:34:11.260Z,-1.30
2023-12-18T08:36:38.232Z,-1.30
2023-12-18T08:39:09.802Z,-1.20
2023-12-18T08:41:38.467Z,-1.10
2023-12-18T08:44:06.428Z,-1.00
2023-12-18T08:46:33.437Z,-1.00
2023-12-18T08:49:00.454Z,-0.90
2023-12-18T08:51:28.607Z,-0.80
2023-12-18T08:53:56.234Z,-0.80
2023-12-18T08:56:23.530Z,-0.70
2023-12-18T08:58:54.103Z,-0.70
2023-12-18T09:01:21.170Z,-0.60
2023-12-18T09:03:48.164Z,-0.40
2023-12-18T09:06:15.382Z,0.10
2023-12-18T09:08:42.615Z,0.70
2023-12-18T09:11:10.139Z,1.30
2023-12-18T09:13:40.107Z,2.00
2023-12-18T09:16:07.526Z,2.10
2023-12-18T09:18:35.308Z,2.50
2023-12-18T09:21:02.713Z,2.60
2023-12-18T09:23:29.669Z,2.40
2023-12-18T09:25:56.885Z,2.00
2023-12-18T09:28:23.886Z,1.80
2023-12-18T09:30:50.839Z,1.70
2023-12-18T09:33:17.938Z,1.60
2023-12-18T09:35:44.911Z,1.80
2023-12-18T09:38:11.831Z,2.00
2023-12-18T09:40:38.743Z,2.20
2023-12-18T09:43:05.976Z,2.70
2023-12-18T09:45:33.177Z,3.50
2023-12-18T09:48:01.041Z,4.30
2023-12-18T09:50:28.756Z,5.10
2023-12-18T09:53:03.197Z,5.40
2023-12-18T09:55:33.386Z,6.00
2023-12-18T09:58:01.337Z,6.70
2023-12-18T10:00:29.158Z,7.10
2023-12-18T10:02:57.854Z,7.90
2023-12-18T10:05:25.110Z,8.70
2023-12-18T10:07:55.706Z,8.80
2023-12-18T10:10:23.181Z,8.70
2023-12-18T10:12:50.290Z,9.10
2023-12-18T10:15:17.632Z,9.30
2023-12-18T10:17:45.404Z,9.50
2023-12-18T10:20:13.472Z,9.60
2023-12-18T10:22:41.936Z,10.30
2023-12-18T10:25:11.252Z,11.00
2023-12-18T10:27:39.893Z,12.20
2023-12-18T10:30:08.971Z,12.50
2023-12-18T10:32:41.138Z,12.90
2023-12-18T10:35:09.539Z,13.10
2023-12-18T10:37:38.299Z,13.80
2023-12-18T10:40:10.269Z,14.20
2023-12-18T10:42:38.675Z,15.30
2023-12-18T10:45:10.089Z,15.60
2023-12-18T10:47:37.703Z,15.50
2023-12-18T10:50:05.800Z,16.30
2023-12-18T10:52:34.537Z,15.40
2023-12-18T10:55:03.421Z,15.20
2023-12-18T10:57:31.832Z,15.50
2023-12-18T11:00:01.029Z,14.80
2023-12-18T11:02:28.337Z,14.20
2023-12-18T11:04:58.170Z,14.50
2023-12-18T11:07:26.897Z,14.90
2023-12-18T11:09:55.455Z,14.80
2023-12-18T11:12:24.541Z,15.10
2023-12-18T11:15:10.075Z,15.40
2023-12-18T11:18:12.860Z,15.20
2023-12-18T11:20:44.103Z,15.50
2023-12-18T11:23:12.535Z,16.10
2023-12-18T11:25:43.093Z,16.60
2023-12-18T11:28:09.996Z,16.10
2023-12-18T11:30:44.760Z,15.70
2023-12-18T11:33:14.664Z,15.30
2023-12-18T11:36:01.187Z,15.90
2023-12-18T11:38:28.051Z,15.80
2023-12-18T11:40:57.224Z,15.70
2023-12-18T11:43:39.919Z,15.20
2023-12-18T11:46:14.915Z,15.40
2023-12-18T11:48:45.366Z,15.10
2023-12-18T11:51:13.155Z,15.40
2023-12-18T11:53:40.004Z,16.10
2023-12-18T11:56:11.562Z,16.40
2023-12-18T11:58:42.618Z,16.80
2023-12-18T12:01:10.308Z,16.60
2023-12-18T12:03:38.662Z,16.00
2023-12-18T12:06:08.537Z,16.50
2023-12-18T12:08:51.946Z,16.10
2023-12-18T12:11:19.961Z,15.80
2023-12-18T12:13:48.454Z,15.40
2023-12-18T12:16:18.820Z,15.20
2023-12-18T12:18:47.899Z,15.60
2023-12-18T12:21:16.133Z,15.60
2023-12-18T12:23:43.011Z,15.60
2023-12-18T12:26:10.638Z,16.00
2023-12-18T12:28:37.568Z,16.50
2023-12-18T12:31:05.290Z,16.10
2023-12-18T12:33:46.433Z,14.80
2023-12-18T12:36:22.380Z,13.50
2023-12-18T12:38:49.582Z,12.10
2023-12-18T12:41:16.601Z,11.30
2023-12-18T12:43:45.245Z,10.70
2023-12-18T12:46:15.698Z,10.10
2023-12-18T12:48:48.806Z,9.40
2023-12-18T12:51:15.934Z,8.80
2023-12-18T12:53:43.687Z,8.50
2023-12-18T12:56:11.866Z,8.30
2023-12-18T12:58:39.035Z,8.10
2023-12-18T13:01:08.508Z,7.80
2023-12-18T13:03:35.993Z,7.60
2023-12-18T13:06:03.056Z,7.50
2023-12-18T13:08:29.940Z,7.40
2023-12-18T13:10:58.800Z,7.30
2023-12-18T13:13:25.936Z,7.30
2023-12-18T13:15:53.448Z,7.30
2023-12-18T13:18:21.714Z,7.30
2023-12-18T13:20:48.709Z,7.20
2023-12-18T13:23:15.882Z,7.20
2023-12-18T13:25:43.539Z,7.10
2023-12-18T13:28:10.896Z,7.00
2023-12-18T13:30:38.175Z,6.90
2023-12-18T13:33:05.384Z,6.90
2023-12-18T13:35:32.336Z,6.80
2023-12-18T13:38:00.183Z,6.80
2023-12-18T13:40:29.968Z,6.70
2023-12-18T13:42:56.897Z,6.70
2023-12-18T13:45:23.918Z,6.60
2023-12-18T13:47:52.451Z,6.50
2023-12-18T13:50:19.781Z,6.50
2023-12-18T13:52:49.555Z,6.50
2023-12-18T13:55:16.538Z,6.40
2023-12-18T13:57:48.667Z,6.30
2023-12-18T14:00:17.863Z,6.30
2023-12-18T14:02:45.568Z,6.30
2023-12-18T14:05:12.429Z,6.20
2023-12-18T14:07:39.712Z,6.20
2023-12-18T14:10:09.239Z,6.10
2023-12-18T14:12:37.077Z,6.10
2023-12-18T14:15:05.226Z,6.20
2023-12-18T14:17:32.243Z,6.20
2023-12-18T14:20:06.038Z,6.10
2023-12-18T14:22:33.838Z,6.00
2023-12-18T14:25:03.170Z,5.90
2023-12-18T14:27:30.812Z,5.70
2023-12-18T14:29:57.801Z,5.50
2023-12-18T14:32:24.881Z,5.40
2023-12-18T14:34:52.030Z,5.30
2023-12-18T14:37:20.151Z,5.20
2023-12-18T14:39:47.410Z,5.10
2023-12-18T14:42:14.489Z,5.00
2023-12-18T14:44:41.538Z,4.90
2023-12-18T14:47:08.599Z,4.90
2023-12-18T14:49:36.024Z,4.80
2023-12-18T14:52:03.381Z,4.70
2023-12-18T14:54:30.338Z,4.50
2023-12-18T14:56:57.191Z,4.40
2023-12-18T14:59:24.023Z,4.20
2023-12-18T15:01:52.035Z,4.10
2023-12-18T15:04:26.499Z,3.90
2023-12-18T15:06:56.947Z,3.80
2023-12-18T15:09:23.917Z,3.60
2023-12-18T15:11:50.861Z,3.50
2023-12-18T15:14:17.734Z,3.50
2023-12-18T15:16:44.567Z,3.30
2023-12-18T15:19:11.733Z,3.20
2023-12-18T15:21:41.786Z,3.10
2023-12-18T15:24:10.161Z,3.00
2023-12-18T15:26:39.158Z,2.90
2023-12-18T15:29:06.469Z,2.90
2023-12-18T15:31:33.583Z,2.80
2023-12-18T15:34:03.401Z,2.70
2023-12-18T15:36:32.639Z,2.60
2023-12-18T15:46:21.398Z,2.50
2023-12-18T15:48:48.486Z,2.20
2023-12-18T15:51:15.583Z,2.10
2023-12-18T15:53:45.427Z,2.00
2023-12-18T15:56:12.725Z,2.00
2023-12-18T15:58:40.288Z,1.90
2023-12-18T16:01:07.341Z,1.80
2023-12-18T16:03:36.800Z,1.80
2023-12-18T16:06:04.274Z,1.60
2023-12-18T16:08:31.233Z,1.50
2023-12-18T16:10:58.179Z,1.40
2023-12-18T16:13:25.195Z,1.40
2023-12-18T16:15:52.137Z,1.30
2023-12-18T16:18:19.314Z,1.20
2023-12-18T16:20:46.238Z,1.10
2023-12-18T16:23:14.741Z,1.00
2023-12-18T16:25:41.592Z,1.00
2023-12-18T16:28:08.416Z,1.00
2023-12-18T16:30:41.994Z,0.90
2023-12-18T16:33:12.394Z,0.90
2023-12-18T16:35:39.332Z,0.80
2023-12-18T16:38:06.155Z,0.80
2023-12-18T16:40:33.198Z,0.80
2023-12-18T16:43:00.756Z,0.80
2023-12-18T16:45:27.840Z,0.70
2023-12-18T16:47:56.657Z,0.60
2023-12-18T16:50:23.664Z,0.70
2023-12-18T16:52:50.565Z,0.70
2023-12-18T16:55:17.612Z,0.50
2023-12-18T16:57:44.608Z,0.50
2023-12-18T17:00:13.668Z,0.50
2023-12-18T17:02:41.796Z,0.50
2023-12-18T17:05:09.307Z,0.40
2023-12-18T17:07:36.617Z,0.40
2023-12-18T17:10:04.297Z,0.40
2023-12-18T17:12:31.526Z,0.40
2023-12-18T17:14:58.455Z,0.20
2023-12-18T17:17:27.082Z,0.20
2023-12-18T17:19:54.930Z,0.20
2023-12-18T17:22:21.872Z,0.20
2023-12-18T17:24:49.279Z,0.10
2023-12-18T17:27:16.190Z,0.20
2023-12-18T17:29:43.071Z,0.10
2023-12-18T17:32:27.387Z,0.10
2023-12-18T17:34:56.845Z,-0.10
2023-12-18T17:37:24.006Z,0.10
2023-12-18T17:39:51.024Z,0.10
2023-12-18T17:42:18.223Z,0.10
2023-12-18T17:44:45.039Z,0.10
2023-12-18T17:47:11.839Z,0.10
2023-12-18T17:49:38.826Z,0.00
2023-12-18T17:52:05.916Z,-0.10
2023-12-18T17:54:32.971Z,-0.20
2023-12-18T17:56:59.999Z,0.00
2023-12-18T17:59:28.540Z,0.10
2023-12-18T18:01:55.441Z,0.10
2023-12-18T18:04:22.755Z,0.00
2023-12-18T18:06:49.943Z,-0.10
2023-12-18T18:09:16.836Z,-0.20
2023-12-18T18:11:43.797Z,-0.20
2023-12-18T18:14:11.089Z,-0.30
2023-12-18T18:16:37.906Z,-0.20
2023-12-18T18:19:08.938Z,-0.30
2023-12-18T18:21:36.639Z,-0.20
2023-12-18T18:24:03.617Z,-0.30
2023-12-18T18:26:30.691Z,-0.30
2023-12-18T18:28:57.534Z,-0.40
2023-12-18T18:31:24.509Z,-0.50
2023-12-18T18:33:51.505Z,-0.50
2023-12-18T18:36:18.487Z,-0.50
2023-12-18T18:38:45.443Z,-0.40
2023-12-18T18:41:12.268Z,-0.40
2023-12-18T18:43:39.094Z,-0.30
2023-12-18T18:46:07.642Z,-0.20
2023-12-18T18:48:35.922Z,0.10
2023-12-18T18:51:03.794Z,0.00
2023-12-18T18:53:30.600Z,-0.10
2023-12-18T18:55:59.237Z,-0.30
2023-12-18T18:58:26.194Z,-0.30
2023-12-18T19:00:53.506Z,-0.40
2023-12-18T19:03:20.835Z,-0.30
2023-12-18T19:05:48.050Z,-0.20
2023-12-18T19:08:15.218Z,-0.20
2023-12-18T19:10:42.068Z,-0.10
2023-12-18T19:13:08.969Z,0.00
2023-12-18T19:15:35.762Z,0.00
2023-12-18T19:18:02.794Z,-0.10
2023-12-18T19:20:30.437Z,0.00
2023-12-18T19:22:57.311Z,0.00
2023-12-18T19:25:24.138Z,0.00
2023-12-18T19:27:51.124Z,0.00
2023-12-18T19:30:18.179Z,0.00
2023-12-18T19:32:45.758Z,-0.10
2023-12-18T19:35:12.726Z,0.00
2023-12-18T19:37:42.144Z,0.00
2023-12-18T19:40:10.337Z,0.00
2023-12-18T19:42:37.301Z,0.20
2023-12-18T19:45:04.479Z,0.40
2023-12-18T19:47:31.362Z,0.50
2023-12-18T19:49:58.266Z,0.40
2023-12-18T19:52:25.239Z,0.30
2023-12-18T19:54:52.126Z,0.30
2023-12-18T19:57:19.140Z,0.10
2023-12-18T19:59:45.977Z,0.20
2023-12-18T20:02:12.987Z,0.20
2023-12-18T20:04:39.834Z,0.30
2023-12-18T20:07:06.912Z,0.40
2023-12-18T20:09:34.011Z,0.40
2023-12-18T20:12:00.925Z,0.40
2023-12-18T20:14:27.736Z,0.40
2023-12-18T20:16:54.626Z,0.40
2023-12-18T20:19:21.586Z,0.40
2023-12-18T20:21:48.675Z,0.50
2023-12-18T20:24:15.881Z,0.40
2023-12-18T20:26:45.277Z,0.40
2023-12-18T20:29:13.909Z,0.40
2023-12-18T20:31:40.865Z,0.60
2023-12-18T20:34:07.814Z,0.70
2023-12-18T20:36:34.793Z,0.60
2023-12-18T20:39:02.757Z,0.60
2023-12-18T20:41:29.655Z,0.60
2023-12-18T20:43:57.759Z,0.70
2023-12-18T20:46:24.556Z,0.70
2023-12-18T20:48:51.472Z,0.70
2023-12-18T20:51:18.348Z,0.70
2023-12-18T20:53:45.372Z,0.70
2023-12-18T20:56:14.928Z,0.70
2023-12-18T20:58:42.178Z,0.70
2023-12-18T21:01:10.040Z,0.60
2023-12-18T21:03:37.360Z,0.60
2023-12-18T21:06:04.472Z,0.70
2023-12-18T21:08:31.391Z,0.60
2023-12-18T21:10:58.479Z,0.60
2023-12-18T21:13:25.953Z,0.90
2023-12-18T21:15:55.467Z,0.90
2023-12-18T21:18:22.556Z,0.90
2023-12-18T21:20:49.527Z,0.80
2023-12-18T21:23:16.384Z,0.70
2023-12-18T21:25:43.551Z,0.80
2023-12-18T21:28:10.451Z,0.90
2023-12-18T21:30:38.093Z,1.00
2023-12-18T21:33:05.424Z,0.90
2023-12-18T21:35:32.409Z,1.00
2023-12-18T21:37:59.306Z,1.10
2023-12-18T21:40:26.097Z,1.10
2023-12-18T21:42:53.019Z,0.90
2023-12-18T21:45:20.460Z,0.90
2023-12-18T21:47:48.379Z,0.90
2023-12-18T21:50:15.394Z,0.90
2023-12-18T21:52:42.537Z,1.00
2023-12-18T21:55:09.578Z,1.10
2023-12-18T21:57:36.435Z,1.00
2023-12-18T22:00:04.140Z,0.90
2023-12-18T22:02:31.138Z,1.00
2023-12-18T22:04:58.086Z,1.10
2023-12-18T22:07:24.896Z,1.00
2023-12-18T22:09:51.947Z,1.00
2023-12-18T22:12:18.943Z,1.00
2023-12-18T22:14:45.767Z,1.10
2023-12-18T22:17:13.186Z,1.00
2023-12-18T22:19:40.469Z,0.90
2023-12-18T22:22:07.531Z,0.90
2023-12-18T22:24:34.399Z,0.90
2023-12-18T22:27:02.823Z,0.90
2023-12-18T22:29:29.791Z,1.10
2023-12-18T22:31:59.990Z,1.10
2023-12-18T22:34:27.329Z,1.10
2023-12-18T22:36:55.711Z,1.20
2023-12-18T22:39:22.973Z,1.30
2023-12-18T22:41:50.045Z,1.30
2023-12-18T22:44:16.881Z,1.40
2023-12-18T22:46:43.778Z,1.40
2023-12-18T22:49:10.677Z,1.50
2023-12-18T22:51:37.669Z,1.50
2023-12-18T22:54:04.632Z,1.50
2023-12-18T22:56:31.443Z,1.50
2023-12-18T22:58:58.295Z,1.50
2023-12-18T23:01:25.294Z,1.50
2023-12-18T23:03:52.248Z,1.50
2023-12-18T23:06:19.100Z,1.60
2023-12-18T23:08:46.997Z,1.70
2023-12-18T23:11:13.826Z,1.90
2023-12-18T23:13:42.130Z,2.00
2023-12-18T23:16:09.245Z,2.00
2023-12-18T23:18:36.271Z,2.00
2023-12-18T23:21:06.852Z,1.90
2023-12-18T23:23:33.903Z,1.80
2023-12-18T23:26:00.907Z,1.70
2023-12-18T23:28:28.873Z,1.70
2023-12-18T23:30:55.954Z,1.80
2023-12-18T23:33:28.291Z,1.90
2023-12-18T23:35:58.703Z,2.00
2023-12-18T23:38:25.565Z,2.10
2023-12-18T23:40:52.358Z,2.10
2023-12-18T23:43:19.205Z,2.10
2023-12-18T23:45:46.134Z,2.20
2023-12-18T23:48:13.148Z,2.30
2023-12-18T23:50:40.012Z,2.40
2023-12-18T23:53:10.634Z,2.50
2023-12-18T23:55:37.407Z,2.40
2023-12-18T23:58:04.430Z,2.40
